Time;durP1;ratioP1;P1;durP2;ratioP2;P2;SDS_P1;SDS_P2;PMS_P1;PMS_P2;Temp;Humidity;BMP_temperature;BMP_pressure;BME280_temperature;BME280_humidity;BME280_pressure;Samples;Min_cycle;Max_cycle;Signal;HPM_P1;HPM_P2
2022/02/21 00:02:19;;;;;;;6.33;5.05;;;;;;;9.95;51.91;101499.09;1763032;79;20987;-73
2022/02/21 00:04:45;;;;;;;7.12;4.55;;;;;;;9.95;51.84;101491.30;1767427;80;21038;-71
2022/02/21 00:07:11;;;;;;;9.33;5.03;;;;;;;9.94;51.87;101499.95;1768474;79;21435;-70
2022/02/21 00:09:38;;;;;;;5.50;4.35;;;;;;;9.93;51.87;101494.35;1768437;79;20971;-73
2022/02/21 00:12:08;;;;;;;6.00;4.30;;;;;;;9.92;51.79;101492.61;1766112;79;21593;-71
2022/02/21 00:14:37;;;;;;;6.90;5.05;;;;;;;9.91;51.70;101495.67;1756455;79;21554;-74
2022/02/21 00:17:05;;;;;;;8.60;6.92;;;;;;;9.88;51.63;101491.78;1768253;79;21412;-74
2022/02/21 00:19:31;;;;;;;11.88;5.70;;;;;;;9.89;51.61;101495.25;1768164;79;21537;-76
2022/02/21 00:21:58;;;;;;;12.20;5.97;;;;;;;9.88;51.57;101490.91;1765670;79;21012;-73
2022/02/21 00:24:24;;;;;;;8.80;5.50;;;;;;;9.86;51.48;101493.53;1767051;79;21522;-72
2022/02/21 00:26:51;;;;;;;8.28;4.85;;;;;;;9.84;51.50;101501.34;1767111;80;21533;-71
2022/02/21 00:29:19;;;;;;;7.60;4.80;;;;;;;9.83;51.53;101496.13;1753978;79;21502;-71
2022/02/21 00:31:45;;;;;;;9.30;5.22;;;;;;;9.81;51.46;101497.87;1765482;79;21502;-70
2022/02/21 00:34:12;;;;;;;10.28;5.30;;;;;;;9.78;51.42;101493.59;1767397;79;20999;-75
2022/02/21 00:36:39;;;;;;;6.70;5.00;;;;;;;9.75;51.39;101491.00;1763400;80;21066;-71
2022/02/21 00:39:06;;;;;;;6.33;4.85;;;;;;;9.73;51.53;101495.34;1770471;79;20994;-73
2022/02/21 00:41:32;;;;;;;9.25;5.58;;;;;;;9.68;51.48;101489.33;1767114;79;21007;-72
2022/02/21 00:43:59;;;;;;;11.78;5.80;;;;;;;9.64;51.42;101479.80;1765056;79;21007;-70
2022/02/21 00:46:25;;;;;;;9.35;5.75;;;;;;;9.61;51.50;101485.03;1765279;79;21005;-72
2022/02/21 00:48:52;;;;;;;9.05;5.20;;;;;;;9.57;51.50;101482.45;1765332;79;20979;-71
2022/02/21 00:51:18;;;;;;;7.53;5.75;;;;;;;9.52;51.60;101488.97;1765188;79;20995;-72
2022/02/21 00:53:44;;;;;;;6.80;5.05;;;;;;;9.48;51.68;101485.97;1764918;79;21035;-76
2022/02/21 00:56:11;;;;;;;10.05;5.35;;;;;;;9.45;51.82;101486.00;1761649;81;20999;-73
2022/02/21 00:58:37;;;;;;;9.15;5.17;;;;;;;9.43;51.90;101479.95;1753438;79;21511;-73
2022/02/21 01:01:04;;;;;;;7.42;5.42;;;;;;;9.42;51.85;101478.20;1761800;79;21612;-73
2022/02/21 01:03:30;;;;;;;7.80;5.47;;;;;;;9.40;51.71;101478.66;1764345;79;21432;-73
2022/02/21 01:05:57;;;;;;;7.30;5.78;;;;;;;9.39;51.72;101470.45;1764500;81;21015;-71
2022/02/21 01:08:24;;;;;;;7.28;5.45;;;;;;;9.39;51.63;101470.45;1752504;79;21546;-70
2022/02/21 01:10:51;;;;;;;8.98;5.62;;;;;;;9.38;51.71;101473.91;1761152;81;21466;-71
2022/02/21 01:13:17;;;;;;;9.25;5.67;;;;;;;9.37;51.71;101474.79;1757501;79;21486;-76
2022/02/21 01:15:44;;;;;;;6.95;5.17;;;;;;;9.36;51.76;101476.94;1762386;79;21002;-73
2022/02/21 01:18:12;;;;;;;7.72;5.25;;;;;;;9.35;51.84;101473.94;1763093;79;21011;-71
2022/02/21 01:20:38;;;;;;;7.80;5.65;;;;;;;9.35;51.92;101473.06;1765850;79;21494;-75
2022/02/21 01:23:04;;;;;;;9.63;5.97;;;;;;;9.35;51.94;101468.74;1765859;79;21474;-76
2022/02/21 01:25:31;;;;;;;10.68;5.67;;;;;;;9.35;51.89;101463.55;1761424;81;21034;-70
2022/02/21 01:27:58;;;;;;;9.35;5.50;;;;;;;9.34;51.70;101459.20;1760243;79;21495;-73
2022/02/21 01:30:25;;;;;;;9.75;5.97;;;;;;;9.33;51.68;101462.70;1762739;79;21492;-71
2022/02/21 01:32:51;;;;;;;9.60;6.60;;;;;;;9.31;51.59;101460.55;1762080;79;21483;-71
2022/02/21 01:35:18;;;;;;;7.40;6.05;;;;;;;9.30;51.61;101464.42;1763288;79;20998;-71
2022/02/21 01:37:44;;;;;;;10.78;6.25;;;;;;;9.26;51.56;101459.69;1766074;79;20948;-72
2022/02/21 01:40:11;;;;;;;9.35;6.50;;;;;;;9.25;51.55;101457.11;1766048;79;20986;-75
2022/02/21 01:42:38;;;;;;;10.08;6.53;;;;;;;9.20;51.67;101451.06;1763870;79;21392;-72
2022/02/21 01:45:05;;;;;;;7.00;5.85;;;;;;;9.16;51.81;101454.12;1764286;79;21029;-73
2022/02/21 01:47:31;;;;;;;9.98;7.20;;;;;;;9.13;51.98;101443.73;1763185;81;21011;-71
2022/02/21 01:49:58;;;;;;;10.80;6.65;;;;;;;9.10;52.06;101441.17;1766948;79;21002;-73
2022/02/21 01:52:24;;;;;;;8.60;6.30;;;;;;;9.09;52.20;101439.42;1765990;79;21478;-71
2022/02/21 01:54:51;;;;;;;7.67;5.62;;;;;;;9.07;52.25;101443.77;1762912;79;21538;-71
2022/02/21 01:57:18;;;;;;;9.68;6.40;;;;;;;9.06;52.29;101440.75;1762423;79;20992;-73
2022/02/21 01:59:45;;;;;;;8.43;6.10;;;;;;;9.06;52.17;101438.59;1763112;79;20944;-73
2022/02/21 02:02:11;;;;;;;11.28;6.55;;;;;;;9.05;52.19;101447.27;1762473;79;20995;-74
2022/02/21 02:04:39;;;;;;;9.03;7.10;;;;;;;9.04;52.20;101447.69;1762816;79;21039;-72
2022/02/21 02:07:06;;;;;;;13.15;6.37;;;;;;;9.03;52.27;101445.95;1772697;79;21007;-71
2022/02/21 02:09:33;;;;;;;8.05;6.20;;;;;;;9.04;52.26;101443.80;1765855;79;21035;-75
2022/02/21 02:11:59;;;;;;;11.10;6.40;;;;;;;9.02;52.28;101440.34;1762520;79;21022;-71
2022/02/21 02:14:29;;;;;;;8.65;6.40;;;;;;;9.02;52.25;101442.94;1764736;81;21514;-71
2022/02/21 02:16:58;;;;;;;9.83;6.40;;;;;;;9.01;52.20;101446.39;1761080;81;21463;-71
2022/02/21 02:19:24;;;;;;;10.75;6.85;;;;;;;9.01;52.24;101448.98;1768181;79;20991;-70
2022/02/21 02:21:54;;;;;;;10.35;6.60;;;;;;;8.99;52.36;101454.19;1764434;79;21003;-75
2022/02/21 02:24:22;;;;;;;8.48;5.72;;;;;;;8.98;52.50;101451.61;1751231;79;21479;-71
2022/02/21 02:26:54;;;;;;;9.00;6.03;;;;;;;8.95;52.57;101449.88;1763332;79;20991;-72
2022/02/21 02:29:21;;;;;;;9.45;7.28;;;;;;;8.94;52.58;101442.11;1761500;79;21034;-75
2022/02/21 02:31:49;;;;;;;8.78;6.35;;;;;;;8.92;52.64;101441.25;1764853;80;20987;-73
2022/02/21 02:34:16;;;;;;;12.37;7.90;;;;;;;8.90;52.68;101440.40;1765981;79;20987;-72
2022/02/21 02:36:45;;;;;;;12.18;7.75;;;;;;;8.87;52.70;101445.16;1765219;79;21022;-73
2022/02/21 02:39:12;;;;;;;13.80;8.90;;;;;;;8.84;52.74;101453.41;1763076;79;21015;-71
2022/02/21 02:41:44;;;;;;;14.40;8.78;;;;;;;8.81;52.85;101455.56;1750003;81;21042;-73
2022/02/21 02:44:11;;;;;;;15.83;9.48;;;;;;;8.77;52.93;101449.09;1765938;79;20979;-71
2022/02/21 02:46:37;;;;;;;12.88;8.80;;;;;;;8.75;53.00;101450.40;1766027;79;21011;-71
2022/02/21 02:49:04;;;;;;;11.73;8.68;;;;;;;8.72;53.15;101448.23;1747768;82;21002;-72
2022/02/21 02:51:30;;;;;;;10.75;8.20;;;;;;;8.68;53.26;101447.37;1765696;79;21031;-77
2022/02/21 02:53:57;;;;;;;9.35;7.97;;;;;;;8.65;53.32;101450.00;1753616;79;21078;-71
2022/02/21 02:56:24;;;;;;;10.30;8.13;;;;;;;8.61;53.29;101446.12;1764406;79;20963;-72
2022/02/21 02:58:50;;;;;;;9.70;8.05;;;;;;;8.56;53.34;101452.61;1765885;79;20991;-71
2022/02/21 03:01:16;;;;;;;8.55;7.45;;;;;;;8.53;53.29;101462.13;1761342;81;21523;-72
2022/02/21 03:03:43;;;;;;;9.03;7.33;;;;;;;8.50;53.29;101458.23;1757688;79;20995;-73
2022/02/21 03:06:09;;;;;;;9.70;7.55;;;;;;;8.45;53.22;101453.52;1762502;79;21015;-71
2022/02/21 03:08:36;;;;;;;9.03;7.03;;;;;;;8.40;53.23;101452.64;1762930;79;21011;-77
2022/02/21 03:11:02;;;;;;;8.13;7.17;;;;;;;8.35;53.32;101447.45;1765812;79;20987;-72
2022/02/21 03:13:31;;;;;;;8.78;7.22;;;;;;;8.32;53.43;101458.28;1765733;79;21071;-71
2022/02/21 03:15:57;;;;;;;8.90;6.87;;;;;;;8.29;53.40;101451.78;1764262;79;21007;-73
2022/02/21 03:18:23;;;;;;;8.55;7.30;;;;;;;8.24;53.35;101453.08;1764273;79;21038;-73
2022/02/21 03:20:50;;;;;;;7.65;6.95;;;;;;;8.19;53.49;101449.19;1764859;81;21003;-73
2022/02/21 03:23:16;;;;;;;8.43;7.20;;;;;;;8.16;53.52;101450.47;1759756;79;21016;-72
2022/02/21 03:25:43;;;;;;;9.65;8.40;;;;;;;8.13;53.43;101450.49;1762569;79;21085;-74
2022/02/21 03:28:10;;;;;;;9.30;7.03;;;;;;;8.10;53.40;101453.06;1762945;79;21002;-71
2022/02/21 03:30:36;;;;;;;9.35;8.10;;;;;;;8.06;53.51;101452.64;1764328;79;21042;-71
2022/02/21 03:33:05;;;;;;;9.65;7.55;;;;;;;8.02;53.54;101447.03;1766179;79;21002;-74
2022/02/21 03:35:31;;;;;;;9.60;7.42;;;;;;;8.00;53.54;101451.35;1766137;79;21058;-74
2022/02/21 03:37:57;;;;;;;7.28;6.42;;;;;;;7.99;53.25;101462.59;1763318;79;20982;-73
2022/02/21 03:40:24;;;;;;;6.67;5.97;;;;;;;7.95;53.15;101461.30;1764742;79;21003;-73
2022/02/21 03:42:51;;;;;;;7.95;7.15;;;;;;;7.91;53.03;101454.39;1764977;81;20995;-71
2022/02/21 03:45:22;;;;;;;9.70;7.97;;;;;;;7.88;53.26;101461.72;1765797;79;21530;-75
2022/02/21 03:47:49;;;;;;;8.38;6.60;;;;;;;7.84;53.28;101469.06;1766078;79;21026;-75
2022/02/21 03:50:16;;;;;;;8.55;7.50;;;;;;;7.81;53.31;101463.86;1763814;79;20987;-71
2022/02/21 03:52:42;;;;;;;7.78;6.97;;;;;;;7.78;53.34;101459.98;1762882;79;20960;-75
2022/02/21 03:55:09;;;;;;;9.93;8.05;;;;;;;7.75;53.37;101466.45;1759875;79;21057;-71
2022/02/21 03:57:37;;;;;;;10.08;8.15;;;;;;;7.73;53.46;101462.99;1801855;78;21006;-71
2022/02/21 04:00:10;;;;;;;10.58;8.65;;;;;;;7.69;53.61;101454.78;1799896;78;21034;-74
2022/02/21 04:02:40;;;;;;;11.80;7.95;;;;;;;7.68;53.68;101458.25;1806158;78;21066;-71
2022/02/21 04:05:08;;;;;;;8.63;7.83;;;;;;;7.65;53.66;101450.47;1800107;78;21540;-72
2022/02/21 04:07:34;;;;;;;9.43;8.40;;;;;;;7.62;53.78;101450.91;1765639;80;21039;-72
2022/02/21 04:10:01;;;;;;;10.10;8.60;;;;;;;7.59;54.06;101450.45;1769400;79;21007;-72
2022/02/21 04:12:29;;;;;;;7.60;6.85;;;;;;;7.57;54.35;101450.89;1768415;79;20991;-75
2022/02/21 04:14:55;;;;;;;10.53;8.63;;;;;;;7.55;54.54;101442.25;1790118;78;21025;-72
2022/02/21 04:17:23;;;;;;;9.35;8.13;;;;;;;7.55;54.77;101438.80;1798543;78;20978;-73
2022/02/21 04:19:50;;;;;;;9.15;8.25;;;;;;;7.54;54.97;101432.77;1794262;78;21002;-72
2022/02/21 04:22:17;;;;;;;11.20;8.48;;;;;;;7.55;55.12;101431.89;1801734;78;20966;-71
2022/02/21 04:24:43;;;;;;;9.73;8.65;;;;;;;7.55;55.03;101440.96;1766880;79;20995;-74
2022/02/21 04:27:09;;;;;;;7.95;7.15;;;;;;;7.54;54.97;101431.48;1765212;79;20963;-71
2022/02/21 04:29:38;;;;;;;7.20;6.50;;;;;;;7.52;54.85;101421.55;1730891;82;21035;-73
2022/02/21 04:32:07;;;;;;;7.17;6.47;;;;;;;7.50;54.61;101415.47;1801718;79;21010;-72
2022/02/21 04:34:35;;;;;;;6.47;5.83;;;;;;;7.48;54.35;101408.59;1767753;79;20967;-74
2022/02/21 04:37:01;;;;;;;6.70;6.00;;;;;;;7.45;54.14;101415.92;1800688;78;21454;-73
2022/02/21 04:39:27;;;;;;;5.90;5.37;;;;;;;7.42;54.04;101416.35;1798282;78;20983;-73
2022/02/21 04:41:54;;;;;;;6.42;5.83;;;;;;;7.38;53.91;101421.94;1798274;78;21502;-75
2022/02/21 04:44:21;;;;;;;6.78;6.17;;;;;;;7.36;53.83;101417.19;1798314;78;20971;-72
2022/02/21 04:46:48;;;;;;;6.87;6.28;;;;;;;7.33;53.66;101418.48;1798303;78;20962;-73
2022/02/21 04:49:15;;;;;;;8.30;5.90;;;;;;;7.29;53.37;101412.42;1800177;78;20998;-72
2022/02/21 04:51:41;;;;;;;6.87;6.17;;;;;;;7.25;53.08;101403.37;1801546;78;20958;-74
2022/02/21 04:54:08;;;;;;;7.10;6.40;;;;;;;7.21;52.97;101409.41;1800825;78;21024;-73
2022/02/21 04:56:35;;;;;;;7.45;6.67;;;;;;;7.16;52.98;101400.75;1798124;78;21011;-73
2022/02/21 04:59:01;;;;;;;7.60;6.80;;;;;;;7.12;52.92;101408.95;1800227;78;21009;-73
2022/02/21 05:01:28;;;;;;;8.68;7.20;;;;;;;7.09;52.90;101404.20;1802001;79;21497;-70
2022/02/21 05:03:56;;;;;;;7.67;6.95;;;;;;;7.05;52.76;101405.02;1801563;78;21550;-73
2022/02/21 05:06:23;;;;;;;7.85;7.05;;;;;;;7.02;52.77;101410.20;1765082;79;21046;-75
2022/02/21 05:08:49;;;;;;;6.92;6.20;;;;;;;6.98;52.69;101411.06;1757657;79;21546;-72
2022/02/21 05:11:16;;;;;;;6.05;5.55;;;;;;;6.94;52.65;101415.79;1762524;79;21014;-71
2022/02/21 05:13:42;;;;;;;6.33;5.67;;;;;;;6.89;52.76;101413.60;1763587;79;20995;-76
2022/02/21 05:16:09;;;;;;;5.80;5.28;;;;;;;6.87;52.86;101417.91;1761173;81;21490;-72
2022/02/21 05:18:35;;;;;;;5.47;4.97;;;;;;;6.85;52.76;101418.33;1757171;79;21003;-73
2022/02/21 05:21:02;;;;;;;5.67;5.10;;;;;;;6.82;52.55;101419.63;1762799;79;21046;-72
2022/02/21 05:23:28;;;;;;;5.58;5.08;;;;;;;6.80;52.46;101429.11;1763688;79;21007;-72
2022/02/21 05:25:55;;;;;;;6.10;5.50;;;;;;;6.78;52.38;101428.23;1765997;79;20975;-72
2022/02/21 05:28:22;;;;;;;5.78;5.30;;;;;;;6.75;52.39;101426.49;1765668;79;20983;-71
2022/02/21 05:30:48;;;;;;;5.75;5.22;;;;;;;6.73;52.34;101428.62;1763877;79;21010;-72
2022/02/21 05:33:15;;;;;;;6.35;5.42;;;;;;;6.70;52.20;101426.05;1764159;79;20998;-74
2022/02/21 05:35:42;;;;;;;5.70;5.20;;;;;;;6.66;52.30;101426.44;1764901;81;20998;-72
2022/02/21 05:38:08;;;;;;;6.10;5.50;;;;;;;6.63;52.47;101428.16;1765988;79;20991;-73
2022/02/21 05:40:35;;;;;;;6.58;5.97;;;;;;;6.59;52.50;101429.41;1765696;79;21019;-71
2022/02/21 05:43:01;;;;;;;5.72;5.22;;;;;;;6.57;52.74;101436.30;1753748;79;21038;-70
2022/02/21 05:45:28;;;;;;;6.00;5.40;;;;;;;6.56;52.95;101441.05;1759538;81;21066;-73
2022/02/21 05:47:54;;;;;;;5.45;4.95;;;;;;;6.56;53.10;101437.59;1765387;79;20983;-72
2022/02/21 05:50:21;;;;;;;5.83;5.33;;;;;;;6.56;53.28;101435.88;1762754;79;20963;-71
2022/02/21 05:52:48;;;;;;;5.85;5.33;;;;;;;6.57;53.54;101436.30;1762988;79;21046;-75
2022/02/21 05:55:15;;;;;;;5.70;5.20;;;;;;;6.59;53.65;101425.53;1762296;79;21494;-70
2022/02/21 05:57:41;;;;;;;6.40;5.80;;;;;;;6.62;53.92;101427.28;1762421;79;21032;-70
2022/02/21 06:00:11;;;;;;;6.42;5.83;;;;;;;6.67;53.98;101433.77;1763134;79;21054;-70
2022/02/21 06:02:39;;;;;;;6.58;5.70;;;;;;;6.69;54.24;101436.81;1758941;79;20980;-72
2022/02/21 06:05:06;;;;;;;6.33;5.72;;;;;;;6.73;54.43;101425.62;1765930;79;20967;-71
2022/02/21 06:07:33;;;;;;;6.20;5.60;;;;;;;6.79;54.48;101437.70;1764513;79;21005;-72
2022/02/21 06:10:00;;;;;;;6.50;5.90;;;;;;;6.84;54.56;101433.44;1763667;79;20999;-77
2022/02/21 06:12:26;;;;;;;7.83;7.12;;;;;;;6.89;54.73;101431.70;1764717;81;21034;-70
2022/02/21 06:14:53;;;;;;;7.53;6.72;;;;;;;6.95;54.85;101434.31;1765785;79;21030;-71
2022/02/21 06:17:19;;;;;;;6.67;6.03;;;;;;;7.01;55.06;101439.52;1765840;79;21007;-71
2022/02/21 06:19:46;;;;;;;7.10;6.40;;;;;;;7.08;55.19;101441.28;1763764;79;21558;-70
2022/02/21 06:22:13;;;;;;;9.25;6.70;;;;;;;7.15;55.37;101427.52;1762408;79;21023;-72
2022/02/21 06:24:39;;;;;;;12.00;7.17;;;;;;;7.27;55.46;101422.36;1762532;79;20999;-68
2022/02/21 06:27:06;;;;;;;7.92;6.95;;;;;;;7.40;55.83;101416.33;1762557;79;20985;-70
2022/02/21 06:29:32;;;;;;;7.00;6.22;;;;;;;7.53;55.83;101418.08;1763025;79;20951;-75
2022/02/21 06:31:58;;;;;;;8.25;6.72;;;;;;;7.67;55.88;101415.48;1759158;79;21011;-71
2022/02/21 06:34:25;;;;;;;9.33;6.37;;;;;;;7.80;55.67;101415.94;1765719;79;20987;-70
2022/02/21 06:36:51;;;;;;;7.83;6.97;;;;;;;7.95;55.44;101426.31;1764040;79;21077;-69
2022/02/21 06:39:19;;;;;;;6.97;6.28;;;;;;;8.09;55.29;101426.73;1764131;79;21043;-73
2022/02/21 06:41:47;;;;;;;9.20;6.80;;;;;;;8.27;55.12;101425.87;1764805;81;21486;-69
2022/02/21 06:44:14;;;;;;;8.53;6.80;;;;;;;8.42;54.86;101410.28;1752540;79;21533;-70
2022/02/21 06:46:42;;;;;;;8.93;7.00;;;;;;;8.60;54.49;101407.63;1764336;79;20983;-69
2022/02/21 06:49:10;;;;;;;8.75;7.00;;;;;;;8.77;54.51;101403.67;1763919;79;21019;-73
2022/02/21 06:51:37;;;;;;;10.28;6.53;;;;;;;8.92;54.30;101401.86;1701374;84;21038;-71
2022/02/21 06:54:05;;;;;;;9.10;6.72;;;;;;;9.09;54.20;101397.89;1724520;82;21083;-72
2022/02/21 06:56:32;;;;;;;6.83;6.22;;;;;;;9.27;53.74;101399.53;1721414;82;20997;-70
2022/02/21 06:58:58;;;;;;;6.40;5.70;;;;;;;9.40;53.81;101389.04;1717454;82;21036;-72
2022/02/21 07:01:25;;;;;;;6.67;5.87;;;;;;;9.58;53.99;101387.60;1715743;82;21021;-69
2022/02/21 07:03:52;;;;;;;5.92;5.33;;;;;;;9.77;53.65;101383.13;1716205;82;20989;-70
2022/02/21 07:06:19;;;;;;;7.40;5.55;;;;;;;10.00;53.24;101388.98;1714573;82;21021;-71
2022/02/21 07:08:45;;;;;;;6.05;5.45;;;;;;;10.21;53.06;101374.52;1716356;82;21024;-71
2022/02/21 07:11:12;;;;;;;6.33;5.72;;;;;;;10.42;52.88;101385.13;1640723;86;20999;-70
2022/02/21 07:13:38;;;;;;;6.62;5.80;;;;;;;10.58;52.45;101387.97;1653630;84;21026;-72
2022/02/21 07:16:05;;;;;;;6.50;5.90;;;;;;;10.66;52.16;101388.74;1716178;82;21093;-69
2022/02/21 07:18:31;;;;;;;8.58;6.80;;;;;;;10.70;52.05;101385.65;1718527;82;21072;-70
2022/02/21 07:20:58;;;;;;;6.95;6.00;;;;;;;10.71;52.05;101385.66;1637833;85;21070;-72
2022/02/21 07:23:24;;;;;;;7.42;6.50;;;;;;;10.71;52.15;101383.05;1701504;82;20993;-72
2022/02/21 07:25:51;;;;;;;7.35;6.53;;;;;;;10.69;52.30;101384.81;1716963;82;21032;-70
2022/02/21 07:28:17;;;;;;;7.55;6.85;;;;;;;10.68;52.54;101384.38;1717757;83;21008;-71
2022/02/21 07:30:44;;;;;;;7.65;6.85;;;;;;;10.67;52.69;101393.08;1719121;82;20997;-72
2022/02/21 07:33:11;;;;;;;7.45;6.75;;;;;;;10.63;53.06;101388.80;1717846;82;20997;-71
2022/02/21 07:35:37;;;;;;;8.08;7.28;;;;;;;10.61;53.51;101393.16;1715774;82;21095;-74
2022/02/21 07:38:04;;;;;;;9.38;7.12;;;;;;;10.62;53.68;101397.47;1715872;82;21080;-72
2022/02/21 07:40:32;;;;;;;7.78;6.90;;;;;;;10.63;53.90;101399.20;1715962;82;21033;-73
2022/02/21 07:42:59;;;;;;;8.15;6.90;;;;;;;10.63;53.99;101387.03;1715888;82;21009;-70
2022/02/21 07:45:26;;;;;;;8.03;7.22;;;;;;;10.64;53.91;101383.56;1717500;82;21005;-70
2022/02/21 07:47:57;;;;;;;8.70;7.72;;;;;;;10.66;53.86;101388.74;1659066;84;21033;-73
2022/02/21 07:50:25;;;;;;;7.97;7.17;;;;;;;10.68;54.08;101391.31;1755436;79;21081;-73
2022/02/21 07:52:52;;;;;;;8.78;7.03;;;;;;;10.72;54.30;101393.87;1764145;79;20991;-70
2022/02/21 07:55:19;;;;;;;8.05;7.25;;;;;;;10.77;54.56;101395.12;1759341;79;21046;-72
2022/02/21 07:57:47;;;;;;;7.45;6.75;;;;;;;10.83;54.54;101395.91;1765798;79;21043;-73
2022/02/21 08:00:17;;;;;;;7.72;6.78;;;;;;;10.88;54.60;101391.95;1764329;79;21518;-73
2022/02/21 08:02:43;;;;;;;8.48;7.03;;;;;;;10.96;54.66;101390.11;1763224;79;21112;-74
2022/02/21 08:05:10;;;;;;;8.18;6.83;;;;;;;11.03;54.74;101384.79;1764932;81;21557;-70
2022/02/21 08:07:39;;;;;;;8.68;7.62;;;;;;;11.11;54.76;101375.13;1765741;79;21483;-71
2022/02/21 08:10:06;;;;;;;8.33;7.53;;;;;;;11.19;54.57;101369.83;1701588;83;21010;-72
2022/02/21 08:12:34;;;;;;;9.20;7.08;;;;;;;11.27;54.40;101354.48;1734519;80;21028;-73
2022/02/21 08:15:01;;;;;;;8.73;7.50;;;;;;;11.33;54.24;101346.56;1724588;80;21043;-72
2022/02/21 08:17:27;;;;;;;8.63;7.67;;;;;;;11.39;54.08;101345.20;1736799;80;20984;-73
2022/02/21 08:19:54;;;;;;;10.93;7.75;;;;;;;11.46;53.85;101338.12;1670263;85;20986;-73
2022/02/21 08:22:20;;;;;;;8.95;7.35;;;;;;;11.53;53.71;101328.45;1714578;82;21013;-76
2022/02/21 08:24:47;;;;;;;9.20;7.53;;;;;;;11.57;53.37;101323.17;1677341;83;21018;-73
2022/02/21 08:27:13;;;;;;;11.20;8.10;;;;;;;11.64;53.20;101317.42;1717914;82;21052;-72
2022/02/21 08:29:40;;;;;;;9.50;7.40;;;;;;;11.69;53.17;101308.66;1711500;82;20992;-70
2022/02/21 08:32:07;;;;;;;9.88;7.62;;;;;;;11.75;53.07;101306.38;1713040;82;21072;-72
2022/02/21 08:34:34;;;;;;;8.83;7.17;;;;;;;11.80;52.91;101307.17;1669088;83;21015;-72
2022/02/21 08:37:00;;;;;;;8.78;7.25;;;;;;;11.85;52.66;101297.06;1726153;80;21063;-71
2022/02/21 08:39:27;;;;;;;8.90;7.25;;;;;;;11.91;52.30;101298.72;1735164;80;20996;-73
2022/02/21 08:41:53;;;;;;;8.80;6.95;;;;;;;11.95;52.10;101292.56;1736136;81;21012;-72
2022/02/21 08:44:20;;;;;;;8.38;7.40;;;;;;;11.99;51.89;101290.30;1677251;83;21553;-70
2022/02/21 08:46:47;;;;;;;8.60;7.17;;;;;;;12.04;51.61;101283.23;1708965;82;21537;-72
2022/02/21 08:49:14;;;;;;;10.80;9.68;;;;;;;12.08;51.58;101280.55;1713437;82;21576;-72
2022/02/21 08:51:40;;;;;;;10.78;8.70;;;;;;;12.13;51.49;101285.67;1669534;83;21494;-70
2022/02/21 08:54:09;;;;;;;9.95;8.68;;;;;;;12.16;51.73;101286.91;1726490;80;21523;-73
2022/02/21 08:56:35;;;;;;;8.75;7.85;;;;;;;12.19;51.73;101277.73;1739279;80;21055;-73
2022/02/21 08:59:02;;;;;;;9.05;8.15;;;;;;;12.21;51.67;101275.51;1741389;80;21047;-71
2022/02/21 09:01:28;;;;;;;9.23;8.08;;;;;;;12.23;51.69;101274.16;1742996;81;21032;-72
2022/02/21 09:03:55;;;;;;;8.10;7.40;;;;;;;12.24;51.80;101270.69;1680049;83;20990;-73
2022/02/21 09:06:21;;;;;;;9.45;7.95;;;;;;;12.26;51.83;101274.12;1723193;82;21026;-73
2022/02/21 09:08:48;;;;;;;7.60;6.85;;;;;;;12.30;51.89;101277.52;1719733;82;21106;-74
2022/02/21 09:11:14;;;;;;;7.97;7.17;;;;;;;12.33;51.90;101267.86;1729903;82;21049;-71
2022/02/21 09:13:41;;;;;;;7.10;6.40;;;;;;;12.36;51.89;101269.56;1761930;81;21023;-71
2022/02/21 09:16:07;;;;;;;9.40;7.62;;;;;;;12.40;51.77;101277.30;1762272;81;21030;-73
2022/02/21 09:18:35;;;;;;;11.35;9.93;;;;;;;12.44;51.71;101273.73;1759331;81;21073;-70
2022/02/21 09:21:02;;;;;;;9.10;8.18;;;;;;;12.48;51.46;101275.38;1765258;81;21043;-74
2022/02/21 09:23:28;;;;;;;8.15;7.05;;;;;;;12.51;51.21;101277.91;1763741;81;21038;-72
2022/02/21 09:25:55;;;;;;;10.58;7.45;;;;;;;12.52;51.19;101266.59;1762869;81;20947;-69
2022/02/21 09:28:21;;;;;;;8.80;7.40;;;;;;;12.51;51.10;101271.38;1745765;81;21058;-71
2022/02/21 09:30:48;;;;;;;9.25;7.97;;;;;;;12.51;51.23;101275.30;1762108;81;21518;-73
2022/02/21 09:33:14;;;;;;;8.40;7.45;;;;;;;12.49;51.38;101277.08;1762183;81;21478;-76
2022/02/21 09:35:41;;;;;;;8.20;7.22;;;;;;;12.48;51.59;101278.00;1759689;81;21003;-71
2022/02/21 09:38:09;;;;;;;10.08;7.78;;;;;;;12.46;51.69;101279.78;1759620;81;21507;-70
2022/02/21 09:40:35;;;;;;;8.33;7.15;;;;;;;12.46;51.94;101279.78;1759348;81;20975;-74
2022/02/21 09:43:02;;;;;;;8.48;7.58;;;;;;;12.46;52.19;101278.91;1759671;81;21530;-72
2022/02/21 09:45:29;;;;;;;8.40;7.33;;;;;;;12.48;52.22;101285.83;1760718;80;21062;-72
2022/02/21 09:47:57;;;;;;;8.48;7.67;;;;;;;12.48;52.45;101287.13;1762674;81;20979;-72
2022/02/21 09:50:26;;;;;;;10.48;7.87;;;;;;;12.48;52.64;101281.91;1762926;81;20999;-73
2022/02/21 09:53:00;;;;;;;9.00;8.05;;;;;;;12.48;52.72;101272.77;1760854;81;21093;-75
2022/02/21 09:55:22;;;;;;;8.70;7.80;;;;;;;12.48;52.72;101267.55;1759706;79;21078;-76
2022/02/21 09:57:49;;;;;;;11.20;8.30;;;;;;;12.45;52.62;101262.38;1765329;80;20952;-70
2022/02/21 10:00:16;;;;;;;9.05;7.87;;;;;;;12.42;52.77;101257.25;1766666;79;21026;-71
2022/02/21 10:02:45;;;;;;;9.00;7.78;;;;;;;12.41;52.87;101254.64;1767000;79;21015;-73
2022/02/21 10:05:14;;;;;;;8.50;7.60;;;;;;;12.41;52.86;101250.29;1764944;79;21003;-71
2022/02/21 10:07:41;;;;;;;9.85;7.95;;;;;;;12.43;53.00;101248.95;1763669;79;20964;-70
2022/02/21 10:10:10;;;;;;;9.33;7.53;;;;;;;12.46;52.99;101244.55;1763552;79;20982;-70
2022/02/21 10:12:54;;;;;;;8.75;7.75;;;;;;;12.48;52.92;101237.53;1757999;79;21510;-73
2022/02/21 10:15:29;;;;;;;11.43;8.18;;;;;;;12.51;53.05;101241.36;1760435;79;21026;-72
2022/02/21 10:18:16;;;;;;;10.18;7.95;;;;;;;12.54;52.94;101228.27;1766774;79;21488;-71
2022/02/21 10:20:59;;;;;;;12.33;8.45;;;;;;;12.57;52.85;101226.87;1772623;79;20998;-72
2022/02/21 10:23:31;;;;;;;10.95;9.53;;;;;;;12.58;52.96;101229.91;1759543;79;21030;-70
2022/02/21 10:26:02;;;;;;;10.78;8.93;;;;;;;12.59;53.25;101223.78;1689454;84;21461;-73
2022/02/21 10:28:38;;;;;;;11.22;9.33;;;;;;;12.61;53.45;101225.08;1619634;87;21106;-72
2022/02/21 10:31:20;;;;;;;13.28;9.95;;;;;;;12.64;53.59;101223.69;1619862;87;21511;-75
2022/02/21 10:33:50;;;;;;;;;;;;;;;12.65;53.47;101217.11;1622192;87;21087;-71
2022/02/21 10:36:35;;;;;;;9.93;7.65;;;;;;;12.70;53.28;101212.66;1565228;90;20135;-71
2022/02/21 10:39:07;;;;;;;13.22;7.75;;;;;;;12.74;53.05;101218.22;1564572;90;21728;-78
2022/02/21 10:41:50;;;;;;;9.98;6.97;;;;;;;12.77;52.68;101207.72;1564593;90;21014;-72
2022/02/21 10:44:32;;;;;;;10.23;7.25;;;;;;;12.82;52.70;101201.92;1516430;93;21630;-71
2022/02/21 10:47:17;;;;;;;10.98;7.03;;;;;;;12.88;52.60;101203.08;1516407;93;21099;-77
2022/02/21 10:49:53;;;;;;;8.43;6.80;;;;;;;12.94;52.66;101200.31;1516545;93;21035;-73
2022/02/21 10:52:23;;;;;;;8.60;7.00;;;;;;;13.02;52.57;101193.15;1516497;93;21043;-70
2022/02/21 10:54:50;;;;;;;9.20;6.72;;;;;;;13.08;52.33;101187.80;1521759;93;21119;-70
2022/02/21 10:57:18;;;;;;;9.28;7.05;;;;;;;13.14;52.08;101185.95;1532364;92;21089;-71
2022/02/21 10:59:45;;;;;;;8.03;6.65;;;;;;;13.18;52.01;101182.36;1532415;92;21038;-73
2022/02/21 11:02:17;;;;;;;7.65;6.22;;;;;;;13.19;51.93;101182.78;1532535;94;21550;-73
2022/02/21 11:04:44;;;;;;;12.78;8.45;;;;;;;13.20;51.83;101174.03;1532728;92;21574;-72
2022/02/21 11:07:12;;;;;;;10.15;6.90;;;;;;;13.21;51.85;101167.45;1532540;92;21102;-71
2022/02/21 11:09:41;;;;;;;11.48;7.97;;;;;;;13.22;51.92;101167.01;1532366;92;21126;-72
2022/02/21 11:12:08;;;;;;;9.43;7.42;;;;;;;13.21;52.11;101160.91;1532438;92;21047;-73
2022/02/21 11:14:35;;;;;;;10.18;8.45;;;;;;;13.21;52.20;101153.08;1532711;92;21550;-74
2022/02/21 11:17:04;;;;;;;12.07;8.18;;;;;;;13.19;52.40;101152.73;1532706;94;21635;-71
2022/02/21 11:19:31;;;;;;;9.55;7.28;;;;;;;13.20;52.38;101146.59;1532350;92;21080;-71
2022/02/21 11:21:58;;;;;;;9.85;7.50;;;;;;;13.21;52.45;101141.79;1533678;92;21093;-76
2022/02/21 11:24:32;;;;;;;10.18;7.72;;;;;;;13.22;52.46;101136.95;1534019;93;21533;-73
2022/02/21 11:27:28;;;;;;;9.88;7.90;;;;;;;13.24;52.32;101136.47;1520924;93;21147;-71
2022/02/21 11:30:10;;;;;;;10.63;7.72;;;;;;;13.25;52.31;101135.58;1473346;96;21647;-74
2022/02/21 11:32:40;;;;;;;11.40;8.10;;;;;;;13.27;52.25;101129.86;1520330;91;21040;-72